Ozette, Washington
Current Conditions -  °F | °C
As of 1:53 AM on Monday 22 Dec 2014 (Local Time) from KUIL Reporting Station
Broken Clouds Broken Clouds  
Wind Chill: 45°   Ceiling: 4600
Heat Index: 45°   Visibility: 7mi
Dew Point: 43°   Wind: 0mph
Humidity: 93%   Direction: NA
Pressure: 30.19"   Gusts: NA
Location:  48.1788°N, 124.127°W
Report Text: KUIL 220953Z AUTO 00000KT 7SM BKN046 07/06 A3019 RMK AO2 SLP223 T00720061 $
Loading
Personal Weather Stations






























Interactive Weather Map New forecast layout! Learn more

10-Day Weather Forecast

Advertisements
Track Severe Weather on mobile